Terminal Aerodrome Forecast
Issued by NWS

Home | Current Version | Previous Version | Text Only | Print | Product List | Glossary On
Versions: 1 2 3 4 5 6 7 8 9 10 11 12 13 14 15 16 17 18 19
000
FTUS43 KGRB 172320
TAFCWA
TAF
KCWA 172320Z 1800/1824 23011G17KT P6SM SKC WS020/28055KT
     FM180400 26008KT P6SM SCT250 WS020/29040KT
     FM181600 26007KT P6SM SCT250 WS020/29050KT
      AMD LTD TO CLD VIS AND WIND 1804/1812=

USA.gov is the U.S. government's official web portal to all federal, state and local government web resources and services.